Getafe, Spain
Current Conditions -  °F | °C
As of 5:00 PM on Thursday 18 Dec 2014 (Local Time) from LEGT Reporting Station
Clear Clear  
Wind Chill: 59°   Ceiling: Unl
Heat Index: 59°   Visibility: 6mi
Dew Point: 46°   Wind: 0mph
Humidity: 63%   Direction: NA
Pressure: 30.33"   Gusts: NA
Location:  40.3°N, 3.73°W
Report Text: LEGT 181600Z 00000KT CAVOK 15/08 Q1027
Loading
Personal Weather Stations






























Interactive Weather Map New forecast layout! Learn more

10-Day Weather Forecast

Advertisements
Track Severe Weather on mobile